Terminal Aerodrome Forecast
Issued by NWS Cleveland, OH

Home | Current Version | Previous Version | Graphics & Text | Print | Product List | Glossary On
Versions: 1 2 3 4 5 6 7 8 9 10 11 12 13 14 15 16 17 18 19 20 21
940
FTUS41 KCLE 281738
TAFMFD
TAF
KMFD 281738Z 2818/2918 36008KT 5SM BR OVC006
      TEMPO 2818/2819 2SM BR OVC003
     FM282200 36006KT P6SM OVC012
     FM290200 01005KT P6SM OVC008
     FM290800 01005KT 5SM BR OVC006
     FM291300 04006KT P6SM OVC010=

USA.gov is the U.S. government's official web portal to all federal, state and local government web resources and services.